Placerville, CA (95667)

4:40 AM PST en Marzo 03, 2015 (GMT -0800)
Ladera Lane | Change Station
CLOSE
Current Station
Estación meteorológica personal
Location: Placerville, CA
Altura: 2090 ft
Estaciones meteorológicas cercanas

Alt 2090 ft 38.74 °N, 120.78 °W | Updated 1 minute ago

Overcast
Nublado
34.9 ° F
Sensación térmica 35 ° F
N
0.0
Viento Variable Viento desde ENE
Gusts 0.0 mph

Hoy
Alta -- | Baja -- ° F
--% Posibilidad de precipitaciones
Ayer
Alta -- | Baja -- ° F
Precip. -- pul
6:32 AM 5:57 PM
Gibosa creciente, 96% visible
Presión 29.98 pul
Visibilidad 10.0 Millas
Nubes Nubes dispersas 3400 ft
Nublado 4200 ft
Vientos helados 35 ° F
Punto de rocío 34 ° F
Humedad 96%
Precipitaciones 0.00 pul
Espesor de la nieve No disponible.
UV 0 de una escala de 12
Polen 8.30 de una escala de 12
Calidad del aire No disponible.
Flu Activity No disponible.
METAR KPVF 031235Z AUTO 08007KT 10SM SCT034 OVC042 04/M01 A2998 RMK AO1

More Conditions Fewer Conditions

Presión 29.98 pul
Visibilidad 10.0 Millas
Nubes Nubes dispersas 3400 ft
Nublado 4200 ft
Vientos helados 35 ° F
Punto de rocío 34 ° F
Humedad 96%
Precipitaciones 0.00 pul
Espesor de la nieve No disponible.
UV 0 de una escala de 12
Polen 8.30 de una escala de 12
Calidad del aire No disponible.
Flu Activity No disponible.
METAR KPVF 031235Z AUTO 08007KT 10SM SCT034 OVC042 04/M01 A2998 RMK AO1

More Conditions Fewer Conditions

10-Day Weather Forecast

Almanac

Astronomía

Mar. 03, 2015 Salida Puesta
Hora real
Crepúsculo civil
Crepúsculo náutico
Crepúsculo astronómico
Luna
Horas de luz
Horas de luz
Tomorrow will be .
, % of the Moon is Illuminated

Extremos de hoy

Máximos del estado Bajos del estado

Community

WunderPhotos

Upload Photos

1,802,096 ¡fotos cargadas!

WunderBlogs® & News

Nearby

Calidad del aire

  Calidad del aire Índice AQ Contaminante
Not available.

Grosos de nieve

Estación Profundido Altura

Actividad de terremotos

Ciudad Distance Mag. Tiempo y dato
Magnitud mínima muestra es 2,5.

Temperaturas de aguas costeras

Lugar Temperatura

Estaciones meteorológicas cercanas